createdAt,value
2023-01-21T00:00:28.810Z,11.68
2023-01-21T00:03:34.000Z,13.30
2023-01-21T00:06:39.595Z,11.85
2023-01-21T00:09:45.128Z,12.40
2023-01-21T00:12:53.278Z,11.55
2023-01-21T00:15:58.694Z,11.32
2023-01-21T00:19:04.137Z,10.90
2023-01-21T00:22:09.974Z,11.65
2023-01-21T00:25:15.415Z,11.05
2023-01-21T00:28:23.349Z,9.50
2023-01-21T00:31:28.722Z,10.10
2023-01-21T00:34:34.052Z,9.98
2023-01-21T00:37:39.071Z,8.73
2023-01-21T00:40:44.558Z,9.10
2023-01-21T00:43:52.448Z,10.77
2023-01-21T00:46:57.878Z,10.13
2023-01-21T00:50:03.331Z,8.60
2023-01-21T00:53:08.985Z,8.40
2023-01-21T00:56:15.382Z,9.18
2023-01-21T00:59:23.547Z,8.48
2023-01-21T01:02:29.063Z,8.48
2023-01-21T01:05:34.818Z,8.05
2023-01-21T01:08:39.940Z,8.55
2023-01-21T01:11:45.527Z,7.63
2023-01-21T01:14:53.719Z,8.23
2023-01-21T01:17:58.966Z,6.72
2023-01-21T01:21:05.206Z,7.70
2023-01-21T01:24:10.824Z,7.30
2023-01-21T01:27:16.377Z,6.38
2023-01-21T01:30:24.154Z,7.13
2023-01-21T01:33:30.015Z,6.53
2023-01-21T01:36:35.320Z,6.32
2023-01-21T01:39:41.001Z,6.00
2023-01-21T01:42:46.187Z,6.15
2023-01-21T01:45:55.881Z,6.30
2023-01-21T01:49:03.874Z,6.68
2023-01-21T01:52:10.336Z,6.38
2023-01-21T01:55:16.293Z,7.50
2023-01-21T01:58:23.239Z,5.97
2023-01-21T02:01:31.446Z,4.82
2023-01-21T02:04:39.990Z,5.50
2023-01-21T02:07:46.849Z,5.28
2023-01-21T02:10:54.409Z,5.25
2023-01-21T02:14:00.767Z,5.20
2023-01-21T02:17:21.125Z,4.53
2023-01-21T02:20:41.830Z,4.47
2023-01-21T02:23:59.651Z,4.25
2023-01-21T02:27:29.851Z,4.60
2023-01-21T02:30:53.306Z,5.00
2023-01-21T02:34:13.105Z,4.60
2023-01-21T02:37:21.123Z,4.03
2023-01-21T02:40:32.833Z,3.90
2023-01-21T02:43:41.419Z,3.90
2023-01-21T02:46:48.634Z,4.05
2023-01-21T02:49:59.043Z,4.38
2023-01-21T02:53:05.199Z,4.07
2023-01-21T02:56:12.434Z,3.83
2023-01-21T02:59:18.059Z,4.40
2023-01-21T03:02:32.815Z,4.78
2023-01-21T03:05:47.488Z,4.10
2023-01-21T03:08:55.056Z,3.70
2023-01-21T03:12:03.188Z,3.95
2023-01-21T03:15:23.025Z,4.95
2023-01-21T03:18:29.921Z,3.50
2023-01-21T03:21:38.632Z,4.20
2023-01-21T03:24:45.734Z,4.00
2023-01-21T03:27:52.009Z,3.63
2023-01-21T03:30:58.866Z,4.10
2023-01-21T03:34:06.308Z,4.57
2023-01-21T03:37:16.623Z,4.28
2023-01-21T03:40:24.689Z,5.35
2023-01-21T03:43:30.451Z,3.67
2023-01-21T03:46:40.169Z,3.90
2023-01-21T03:49:47.678Z,3.67
2023-01-21T03:52:55.901Z,3.27
2023-01-21T03:56:01.517Z,3.97
2023-01-21T03:59:06.984Z,3.72
2023-01-21T04:02:12.763Z,3.50
2023-01-21T04:05:18.099Z,4.20
2023-01-21T04:08:26.071Z,3.70
2023-01-21T04:11:31.603Z,4.53
2023-01-21T04:14:36.693Z,4.63
2023-01-21T04:17:42.291Z,3.72
2023-01-21T04:20:49.283Z,4.75
2023-01-21T04:23:57.522Z,4.20
2023-01-21T04:27:03.194Z,3.80
2023-01-21T04:30:09.350Z,3.50
2023-01-21T04:33:14.606Z,4.28
2023-01-21T04:36:19.921Z,3.78
2023-01-21T04:39:27.927Z,3.45
2023-01-21T04:42:32.987Z,3.60
2023-01-21T04:45:38.133Z,3.65
2023-01-21T04:48:43.977Z,3.63
2023-01-21T04:51:49.417Z,3.90
2023-01-21T04:54:57.411Z,4.80
2023-01-21T04:58:02.555Z,3.45
2023-01-21T05:01:08.234Z,4.45
2023-01-21T05:04:13.401Z,3.17
2023-01-21T05:07:21.630Z,5.60
2023-01-21T05:10:29.655Z,3.40
2023-01-21T05:13:35.076Z,3.40
2023-01-21T05:16:40.540Z,4.35
2023-01-21T05:19:46.020Z,3.35
2023-01-21T05:22:51.732Z,4.03
2023-01-21T05:25:59.731Z,3.28
2023-01-21T05:29:05.202Z,4.50
2023-01-21T05:32:10.764Z,3.58
2023-01-21T05:35:19.293Z,3.78
2023-01-21T05:41:32.845Z,4.07
2023-01-21T05:44:38.271Z,3.70
2023-01-21T05:47:43.970Z,3.63
2023-01-21T05:50:49.696Z,3.38
2023-01-21T05:53:55.754Z,2.72
2023-01-21T05:57:03.901Z,3.20
2023-01-21T06:00:09.984Z,4.00
2023-01-21T06:03:15.430Z,2.95
2023-01-21T06:06:20.757Z,3.88
2023-01-21T06:09:26.232Z,3.50
2023-01-21T06:12:34.209Z,4.00
2023-01-21T06:15:39.924Z,3.78
2023-01-21T06:18:45.292Z,3.45
2023-01-21T06:21:51.181Z,4.00
2023-01-21T06:24:56.568Z,3.22
2023-01-21T06:28:04.758Z,3.05
2023-01-21T06:34:15.719Z,3.00
2023-01-21T06:37:21.178Z,3.28
2023-01-21T06:40:26.699Z,4.18
2023-01-21T06:43:34.833Z,3.72
2023-01-21T06:46:43.518Z,4.47
2023-01-21T06:49:51.239Z,3.42
2023-01-21T06:52:56.949Z,4.13
2023-01-21T06:56:02.123Z,3.72
2023-01-21T06:59:10.488Z,3.78
2023-01-21T07:02:16.123Z,3.78
2023-01-21T07:05:21.923Z,4.00
2023-01-21T07:08:27.493Z,4.85
2023-01-21T07:11:33.241Z,4.78
2023-01-21T07:14:41.342Z,4.10
2023-01-21T07:17:47.386Z,4.72
2023-01-21T07:20:53.161Z,4.40
2023-01-21T07:23:58.988Z,4.32
2023-01-21T07:27:06.374Z,4.03
2023-01-21T07:30:19.499Z,4.50
2023-01-21T07:33:25.148Z,4.18
2023-01-21T07:36:30.754Z,4.20
2023-01-21T07:39:36.040Z,4.32
2023-01-21T07:42:42.023Z,4.68
2023-01-21T07:45:50.101Z,3.97
2023-01-21T07:48:56.198Z,4.10
2023-01-21T07:52:01.426Z,6.13
2023-01-21T07:55:08.045Z,4.72
2023-01-21T07:58:13.750Z,5.13
2023-01-21T08:01:24.519Z,5.07
2023-01-21T08:04:30.796Z,4.32
2023-01-21T08:07:36.078Z,4.45
2023-01-21T08:10:41.642Z,4.55
2023-01-21T08:13:47.848Z,4.32
2023-01-21T08:16:55.875Z,4.53
2023-01-21T08:20:01.001Z,3.97
2023-01-21T08:23:06.181Z,4.38
2023-01-21T08:26:11.617Z,3.80
2023-01-21T08:29:16.838Z,4.72
2023-01-21T08:32:25.075Z,4.88
2023-01-21T08:38:35.405Z,4.68
2023-01-21T08:41:41.031Z,4.88
2023-01-21T08:44:46.373Z,4.35
2023-01-21T08:47:54.234Z,4.50
2023-01-21T08:51:01.897Z,4.65
2023-01-21T08:54:07.766Z,4.53
2023-01-21T08:57:13.438Z,4.10
2023-01-21T09:00:22.907Z,4.70
2023-01-21T09:03:30.832Z,4.32
2023-01-21T09:06:36.537Z,4.95
2023-01-21T09:09:41.729Z,4.00
2023-01-21T09:12:47.157Z,4.50
2023-01-21T09:15:52.768Z,4.85
2023-01-21T09:19:00.853Z,4.30
2023-01-21T09:22:06.727Z,4.32
2023-01-21T09:25:12.297Z,4.00
2023-01-21T09:28:18.505Z,4.20
2023-01-21T09:31:24.845Z,4.03
2023-01-21T09:34:35.444Z,4.45
2023-01-21T09:37:41.565Z,3.90
2023-01-21T09:40:47.974Z,5.03
2023-01-21T09:43:58.209Z,4.95
2023-01-21T09:47:05.972Z,5.53
2023-01-21T09:50:17.678Z,4.18
2023-01-21T09:53:28.736Z,3.92
2023-01-21T09:56:37.097Z,4.57
2023-01-21T09:59:47.103Z,4.60
2023-01-21T10:02:55.496Z,4.47
2023-01-21T10:06:17.633Z,4.78
2023-01-21T10:09:43.134Z,4.70
2023-01-21T10:12:57.208Z,4.55
2023-01-21T10:16:08.898Z,4.50
2023-01-21T10:19:16.645Z,4.90
2023-01-21T10:22:26.855Z,4.70
2023-01-21T10:25:34.076Z,4.57
2023-01-21T10:28:41.835Z,4.38
2023-01-21T10:31:48.850Z,4.50
2023-01-21T10:34:55.544Z,4.57
2023-01-21T10:38:06.697Z,5.50
2023-01-21T10:41:18.038Z,4.85
2023-01-21T10:44:27.646Z,4.28
2023-01-21T10:47:36.465Z,4.30
2023-01-21T10:50:45.961Z,4.45
2023-01-21T10:53:56.895Z,5.63
2023-01-21T10:57:07.449Z,4.90
2023-01-21T11:00:21.195Z,4.68
2023-01-21T11:03:31.969Z,4.07
2023-01-21T11:06:39.717Z,4.22
2023-01-21T11:09:49.051Z,3.47
2023-01-21T11:12:54.741Z,4.30
2023-01-21T11:16:00.910Z,4.22
2023-01-21T11:19:07.323Z,4.45
2023-01-21T11:22:25.421Z,4.18
2023-01-21T11:25:36.792Z,4.85
2023-01-21T11:28:41.836Z,4.55
2023-01-21T11:31:48.914Z,5.32
2023-01-21T11:34:55.213Z,5.25
2023-01-21T11:38:01.061Z,4.43
2023-01-21T11:41:11.189Z,4.53
2023-01-21T11:44:20.727Z,4.60
2023-01-21T11:47:35.933Z,5.15
2023-01-21T11:50:41.541Z,4.28
2023-01-21T11:53:47.183Z,3.90
2023-01-21T11:56:59.723Z,4.20
2023-01-21T12:00:10.201Z,3.22
2023-01-21T12:03:20.231Z,4.13
2023-01-21T12:06:28.903Z,4.35
2023-01-21T12:12:47.301Z,4.72
2023-01-21T12:15:58.984Z,4.68
2023-01-21T12:19:25.037Z,4.43
2023-01-21T12:22:46.347Z,4.30
2023-01-21T12:25:53.709Z,4.38
2023-01-21T12:29:11.586Z,4.55
2023-01-21T12:32:18.791Z,5.00
2023-01-21T12:35:28.020Z,4.50
2023-01-21T12:38:36.748Z,5.03
2023-01-21T12:44:51.931Z,4.88
2023-01-21T12:47:59.468Z,4.88
2023-01-21T12:51:07.451Z,4.63
2023-01-21T12:54:17.876Z,4.22
2023-01-21T12:57:26.818Z,4.53
2023-01-21T13:00:36.142Z,4.40
2023-01-21T13:03:46.131Z,4.47
2023-01-21T13:06:54.743Z,4.22
2023-01-21T13:10:05.064Z,5.70
2023-01-21T13:13:18.172Z,6.22
2023-01-21T13:16:27.288Z,5.28
2023-01-21T13:19:32.829Z,5.15
2023-01-21T13:22:43.655Z,4.60
2023-01-21T13:25:54.563Z,4.82
2023-01-21T13:29:03.308Z,4.53
2023-01-21T13:32:25.422Z,4.28
2023-01-21T13:35:37.159Z,4.60
2023-01-21T13:38:45.257Z,4.25
2023-01-21T13:41:56.154Z,5.10
2023-01-21T13:45:22.403Z,4.00
2023-01-21T13:48:45.192Z,4.68
2023-01-21T13:51:59.884Z,4.70
2023-01-21T13:55:14.636Z,4.35
2023-01-21T13:58:25.953Z,3.55
2023-01-21T14:01:33.334Z,4.20
2023-01-21T14:04:42.708Z,5.15
2023-01-21T14:07:53.009Z,4.68
2023-01-21T14:11:00.886Z,4.30
2023-01-21T14:14:23.761Z,3.90
2023-01-21T14:17:36.746Z,3.80
2023-01-21T14:20:56.598Z,3.45
2023-01-21T14:24:08.185Z,3.63
2023-01-21T14:27:16.443Z,4.40
2023-01-21T14:30:23.639Z,3.67
2023-01-21T14:33:32.717Z,4.07
2023-01-21T14:36:39.663Z,4.80
2023-01-21T14:39:53.464Z,4.20
2023-01-21T14:42:59.572Z,4.85
2023-01-21T14:46:10.703Z,3.92
2023-01-21T14:49:16.318Z,4.63
2023-01-21T14:52:22.742Z,3.70
2023-01-21T14:55:32.197Z,4.07
2023-01-21T14:58:37.740Z,3.53
2023-01-21T15:01:45.828Z,4.30
2023-01-21T15:04:55.383Z,3.60
2023-01-21T15:08:06.679Z,3.55
2023-01-21T15:11:20.622Z,3.53
2023-01-21T15:14:27.817Z,3.95
2023-01-21T15:17:49.461Z,4.07
2023-01-21T15:20:58.259Z,4.18
2023-01-21T15:24:23.236Z,4.65
2023-01-21T15:27:33.032Z,4.10
2023-01-21T15:30:57.612Z,4.25
2023-01-21T15:34:05.339Z,4.13
2023-01-21T15:37:17.380Z,3.10
2023-01-21T15:40:24.474Z,4.25
2023-01-21T15:43:35.955Z,2.88
2023-01-21T15:46:45.483Z,2.92
2023-01-21T15:49:55.845Z,3.13
2023-01-21T15:53:06.425Z,3.33
2023-01-21T15:56:26.044Z,2.97
2023-01-21T15:59:40.614Z,2.88
2023-01-21T16:02:51.357Z,3.15
2023-01-21T16:06:02.073Z,2.92
2023-01-21T16:09:08.965Z,3.83
2023-01-21T16:12:18.070Z,3.63
2023-01-21T16:15:30.181Z,3.78
2023-01-21T16:18:41.092Z,4.20
2023-01-21T16:21:48.846Z,4.47
2023-01-21T16:24:56.592Z,3.95
2023-01-21T16:28:02.141Z,4.30
2023-01-21T16:31:10.122Z,3.45
2023-01-21T16:34:15.488Z,3.80
2023-01-21T16:37:22.330Z,3.97
2023-01-21T16:40:32.762Z,4.00
2023-01-21T16:43:38.962Z,5.15
2023-01-21T16:46:46.950Z,4.28
2023-01-21T16:49:52.429Z,4.00
2023-01-21T16:52:58.587Z,3.85
2023-01-21T16:56:03.868Z,3.53
2023-01-21T16:59:20.877Z,3.85
2023-01-21T17:02:31.709Z,3.65
2023-01-21T17:05:38.612Z,3.30
2023-01-21T17:08:44.225Z,3.28
2023-01-21T17:11:50.528Z,3.90
2023-01-21T17:14:59.118Z,3.65
2023-01-21T17:21:14.116Z,3.45
2023-01-21T17:24:20.309Z,3.60
2023-01-21T17:27:26.621Z,3.00
2023-01-21T17:30:33.977Z,3.17
2023-01-21T17:33:39.277Z,3.45
2023-01-21T17:36:48.260Z,3.25
2023-01-21T17:40:01.305Z,3.33
2023-01-21T17:43:21.510Z,3.30
2023-01-21T17:46:27.502Z,3.88
2023-01-21T17:49:33.278Z,3.88
2023-01-21T17:52:41.867Z,3.13
2023-01-21T17:55:57.943Z,3.70
2023-01-21T17:59:03.690Z,3.75
2023-01-21T18:02:13.114Z,3.10
2023-01-21T18:05:18.628Z,3.47
2023-01-21T18:08:26.757Z,5.07
2023-01-21T18:11:32.053Z,3.22
2023-01-21T18:14:37.204Z,3.10
2023-01-21T18:17:44.916Z,3.40
2023-01-21T18:20:50.238Z,3.63
2023-01-21T18:23:58.242Z,2.97
2023-01-21T18:27:04.219Z,3.25
2023-01-21T18:30:15.406Z,3.10
2023-01-21T18:33:21.257Z,2.85
2023-01-21T18:36:26.858Z,3.13
2023-01-21T18:39:34.885Z,2.80
2023-01-21T18:42:40.480Z,3.20
2023-01-21T18:45:45.885Z,2.75
2023-01-21T18:48:51.372Z,3.10
2023-01-21T18:51:56.837Z,3.03
2023-01-21T18:55:04.649Z,3.20
2023-01-21T18:58:15.223Z,3.53
2023-01-21T19:01:23.761Z,2.97
2023-01-21T19:04:29.533Z,4.45
2023-01-21T19:07:35.349Z,2.80
2023-01-21T19:10:43.161Z,2.95
2023-01-21T19:13:48.198Z,3.10
2023-01-21T19:16:53.702Z,3.17
2023-01-21T19:19:59.911Z,2.95
2023-01-21T19:23:05.167Z,3.22
2023-01-21T19:26:15.457Z,3.60
2023-01-21T19:29:24.998Z,2.78
2023-01-21T19:32:30.279Z,3.35
2023-01-21T19:35:37.381Z,3.22
2023-01-21T19:38:44.142Z,2.85
2023-01-21T19:42:07.091Z,3.22
2023-01-21T19:45:14.296Z,2.95
2023-01-21T19:48:20.958Z,3.78
2023-01-21T19:51:27.930Z,3.92
2023-01-21T19:54:36.343Z,3.75
2023-01-21T19:57:44.572Z,4.30
2023-01-21T20:00:51.352Z,5.20
2023-01-21T20:04:00.770Z,4.20
2023-01-21T20:07:07.406Z,3.90
2023-01-21T20:10:16.143Z,4.65
2023-01-21T20:13:24.091Z,4.30
2023-01-21T20:16:31.459Z,4.65
2023-01-21T20:19:36.899Z,4.83
2023-01-21T20:22:42.057Z,4.30
2023-01-21T20:25:48.337Z,5.05
2023-01-21T20:28:58.219Z,5.28
2023-01-21T20:32:04.686Z,4.63
2023-01-21T20:35:10.713Z,5.00
2023-01-21T20:38:17.441Z,4.53
2023-01-21T20:41:22.610Z,5.80
2023-01-21T20:44:30.891Z,5.78
2023-01-21T20:47:38.315Z,4.72
2023-01-21T20:50:44.101Z,5.60
2023-01-21T20:53:49.628Z,6.10
2023-01-21T20:56:55.059Z,5.63
2023-01-21T21:00:03.396Z,5.40
2023-01-21T21:03:11.705Z,5.43
2023-01-21T21:06:18.060Z,5.78
2023-01-21T21:09:23.366Z,5.80
2023-01-21T21:12:29.047Z,6.28
2023-01-21T21:15:38.203Z,6.07
2023-01-21T21:18:43.747Z,6.13
2023-01-21T21:21:50.419Z,6.50
2023-01-21T21:24:56.124Z,6.18
2023-01-21T21:28:01.573Z,7.45
2023-01-21T21:31:12.932Z,6.10
2023-01-21T21:34:18.073Z,7.03
2023-01-21T21:37:23.454Z,6.82
2023-01-21T21:40:30.421Z,6.30
2023-01-21T21:43:33.458Z,6.25
2023-01-21T21:46:53.600Z,7.30
2023-01-21T21:49:59.151Z,6.75
2023-01-21T21:53:04.375Z,6.80
2023-01-21T21:56:11.035Z,7.75
2023-01-21T21:59:16.937Z,6.85
2023-01-21T22:02:25.373Z,7.78
2023-01-21T22:05:33.168Z,6.85
2023-01-21T22:08:39.232Z,7.38
2023-01-21T22:11:44.602Z,6.82
2023-01-21T22:14:49.872Z,8.27
2023-01-21T22:17:58.363Z,8.13
2023-01-21T22:21:04.145Z,7.43
2023-01-21T22:24:09.952Z,8.23
2023-01-21T22:27:15.479Z,7.78
2023-01-21T22:30:21.329Z,8.25
2023-01-21T22:33:30.060Z,8.15
2023-01-21T22:36:35.518Z,8.20
2023-01-21T22:39:41.138Z,7.38
2023-01-21T22:42:46.836Z,7.72
2023-01-21T22:45:52.198Z,8.35
2023-01-21T22:49:00.417Z,7.65
2023-01-21T22:52:06.184Z,8.15
2023-01-21T22:55:11.808Z,8.23
2023-01-21T22:58:17.337Z,7.97
2023-01-21T23:01:26.963Z,8.65
2023-01-21T23:04:35.069Z,8.23
2023-01-21T23:07:40.727Z,8.20
2023-01-21T23:10:46.652Z,8.18
2023-01-21T23:13:53.472Z,8.25
2023-01-21T23:16:58.959Z,8.77
2023-01-21T23:20:07.817Z,8.02
2023-01-21T23:23:14.739Z,8.05
2023-01-21T23:26:20.769Z,8.25
2023-01-21T23:29:26.073Z,7.68
2023-01-21T23:32:31.491Z,8.27
2023-01-21T23:35:40.109Z,12.18
2023-01-21T23:38:45.844Z,8.13
2023-01-21T23:41:51.536Z,7.90
2023-01-21T23:44:57.217Z,7.93
2023-01-21T23:48:02.542Z,8.25
2023-01-21T23:51:11.879Z,7.72
2023-01-21T23:54:17.638Z,8.57
2023-01-21T23:57:23.318Z,8.60
